British Robin — MGSH7 — position and weather

sailwx.info

Track history (hours):
 
Tides and Currents Weather Stations Pressure Air Temp Water Temp Dewpoint Dewpoint Depression Visibility Wind Speed Wind Dir Waves Ship Positions

British Robin

Last reported at 2017-Feb-20 01:33 UTC. Time now 2017-Feb-20 01:46 UTC.
Position N 54°58' E 010°57'.

Length 251.5 m; beam 43.9 m; draft 15 m.

Type: Tanker. MMSI: 232156000.

Date/timePositionNaut miles runAvg speedWind from/ knotsBaromVisibWave heightAir tempDewpointWater temp
2017-Feb-20 01:33N 54°58' E 010°57'1111.1
2017-Feb-20 00:34N 54°47' E 010°50'10 9.8
2017-Feb-19 23:33N 54°38' E 010°55'1212.1
2017-Feb-19 22:33N 54°34' E 011°15'1312.9
2017-Feb-19 21:33N 54°29' E 011°35'1612.5
2017-Feb-19 20:16N 54°26' E 012°02'7 9.6
2017-Feb-19 19:33N 54°30' E 012°13'1010.1
2017-Feb-19 18:33N 54°38' E 012°22'6211.8
2017-Feb-19 13:19N 55°04' E 013°60'1013.1
2017-Feb-19 12:33N 55°08' E 014°16'1312.9
2017-Feb-19 11:33N 55°15' E 014°35'1110.7
2017-Feb-19 10:34N 55°19' E 014°52'9 8.9
2017-Feb-19 09:34N 55°22' E 015°07'1413.6
2017-Feb-19 08:33N 55°28' E 015°29'1313.2
2017-Feb-19 07:33N 55°32' E 015°51'1313.2
2017-Feb-19 06:33N 55°37' E 016°12'1312.9
2017-Feb-19 05:34N 55°41' E 016°34'1312.7
2017-Feb-19 04:33N 55°47' E 016°54'17812.2
2017-Feb-18 14:00N 58°06' E 020°18'5112.7 250 / 221016.3 1.1 1.0-0.4 1.0
2017-Feb-18 10:00N 58°48' E 021°12'6212.5 210 / 241014.610.8 3.0 0.3
2017-Feb-18 05:00N 59°30' E 022°42'2013.6 290 / 241011.9 5.4 2.0-0.8
2017-Feb-18 03:30N 59°38' E 023°19'1212.8
2017-Feb-18 02:33N 59°41' E 023°42'915.9
2017-Feb-18 02:00N 59°42' E 024°00'7012.7 260 / 181012.1 5.4 -0.0-0.0-0.0
2017-Feb-17 20:27N 59°60' E 026°16'1213.0
2017-Feb-17 19:33N 60°01' E 026°39'1312.7
2017-Feb-17 18:33N 59°60' E 027°04'1313.0
2017-Feb-17 17:31N 60°07' E 027°27'1212.5
2017-Feb-17 16:33N 60°12' E 027°49'1111.0
2017-Feb-17 15:33N 60°09' E 028°10'9 8.7
2017-Feb-17 14:33N 60°06' E 028°27'6 6.3
2017-Feb-17 13:33N 60°09' E 028°38'4 4.1
2017-Feb-17 12:33N 60°12' E 028°45'5 4.6
2017-Feb-17 11:33N 60°16' E 028°47'4 0.1
2017-Feb-16 06:33N 60°20' E 028°43'0 0.0
2017-Feb-16 05:33N 60°20' E 028°43'1 0.5
2017-Feb-16 04:33N 60°19' E 028°42'6 5.3
2017-Feb-16 03:31N 60°15' E 028°48'3 3.1
2017-Feb-16 02:27N 60°12' E 028°44'3 3.0
2017-Feb-16 01:33N 60°10' E 028°41'9 9.1
2017-Feb-16 00:33N 60°06' E 028°24'10 9.9
2017-Feb-15 23:33N 60°09' E 028°05'1211.5
2017-Feb-15 22:33N 60°10' E 027°42'1313.0
2017-Feb-15 21:34N 60°03' E 027°19'7 3.0
2017-Feb-15 19:11N 60°02' E 027°05'0 0.0
2017-Feb-15 17:29N 60°02' E 027°05'0 0.0
2017-Feb-15 16:29N 60°02' E 027°05'0 0.0
2017-Feb-15 15:29N 60°02' E 027°05'0 0.0
2017-Feb-15 14:14N 60°02' E 027°05'0 0.1
2017-Feb-15 13:32N 60°02' E 027°05'0 0.0
2017-Feb-15 12:32N 60°02' E 027°05'0 0.1
2017-Feb-15 11:32N 60°02' E 027°05'0 0.0
2017-Feb-15 10:32N 60°02' E 027°05'0 0.1
2017-Feb-15 09:27N 60°02' E 027°05'4 4.7
2017-Feb-15 08:33N 59°58' E 027°02'1212.2
2017-Feb-15 07:33N 59°59' E 026°38'1312.6
2017-Feb-15 06:33N 59°56' E 026°14'2812.5
2017-Feb-15 04:19N 59°49' E 025°20'412.5
2017-Feb-15 04:00N 59°48' E 025°12'3112.5 070 / 81033.3 5.4 1.0-1.9
2017-Feb-15 01:33N 59°42' E 024°13'1312.5
2017-Feb-15 00:33N 59°37' E 023°50'1412.6
2017-Feb-14 23:29N 59°32' E 023°25'16912.5
2017-Feb-14 10:00N 57°24' E 019°54'9411.1 350 / 181031.210.8 4.0 1.4
2017-Feb-14 01:31N 56°07' E 018°15'1612.9
2017-Feb-14 00:16N 55°59' E 017°50'912.8
2017-Feb-13 23:34N 55°55' E 017°36'1312.9
2017-Feb-13 22:33N 55°51' E 017°13'6712.7
2017-Feb-13 17:19N 55°35' E 015°19'912.2
2017-Feb-13 16:33N 55°29' E 015°06'1212.4
2017-Feb-13 15:33N 55°22' E 014°49'1110.6
2017-Feb-13 14:33N 55°15' E 014°34'1414.3
2017-Feb-13 13:33N 55°05' E 014°15'1413.9
2017-Feb-13 12:33N 54°59' E 013°54'1414.1
2017-Feb-13 11:34N 54°54' E 013°31'1414.4
2017-Feb-13 10:34N 54°49' E 013°08'1414.3
2017-Feb-13 09:34N 54°44' E 012°44'1414.1
2017-Feb-13 08:34N 54°37' E 012°23'1513.5
2017-Feb-13 07:28N 54°25' E 012°09'1313.7
2017-Feb-13 06:30N 54°25' E 011°46'1313.8
2017-Feb-13 05:34N 54°31' E 011°26'1313.2
2017-Feb-13 04:34N 54°36' E 011°05'1212.5
2017-Feb-13 03:34N 54°46' E 010°52'1312.9
2017-Feb-13 02:33N 54°58' E 010°59'1313.1
2017-Feb-13 01:34N 55°11' E 011°04'1312.5
2017-Feb-13 00:32N 55°24' E 011°00'2712.6
2017-Feb-12 22:23N 55°50' E 010°49'1213.6
2017-Feb-12 21:32N 55°59' E 011°02'1513.4
2017-Feb-12 20:27N 56°11' E 011°17'4213.5
2017-Feb-12 17:18N 56°50' E 011°48'2514.3
2017-Feb-12 15:34N 57°13' E 011°33'1313.4
2017-Feb-12 14:33N 57°26' E 011°25'1313.3
2017-Feb-12 13:34N 57°36' E 011°08'1413.6
2017-Feb-12 12:33N 57°44' E 010°48'9 9.3
2017-Feb-12 11:34N 57°47' E 010°32'1211.9
2017-Feb-12 10:33N 57°47' E 010°09'1211.8
2017-Feb-12 09:30N 57°45' E 009°47'1312.3
2017-Feb-12 08:26N 57°39' E 009°24'1112.8
2017-Feb-12 07:34N 57°35' E 009°05'1212.5
2017-Feb-12 06:33N 57°29' E 008°44'916.5
2017-Feb-12 06:00N 57°24' E 008°30'3 7.4 100 / 301038.7 5.4 0.5-0.9
2017-Feb-12 05:33N 57°23' E 008°24'1211.5
2017-Feb-12 04:30N 57°20' E 008°03'2812.1
2017-Feb-12 02:12N 56°59' E 007°29'11612.0
2017-Feb-11 16:33N 55°07' E 006°36'1212.2
2017-Feb-11 15:34N 54°55' E 006°42'1424.4
2017-Feb-11 15:00N 54°42' E 006°48'4 8.6 100 / 261029.2 5.4 2.0-4.1
2017-Feb-11 14:33N 54°44' E 006°53'5513.1
2017-Feb-11 10:24N 53°57' E 007°42'1112.5
2017-Feb-11 09:33N 53°50' E 007°54'1010.2
2017-Feb-11 08:33N 53°42' E 008°05'9 8.9
2017-Feb-11 07:34N 53°33' E 008°10'0 0.0
2017-Feb-11 06:32N 53°33' E 008°10'0 0.0
2017-Feb-11 05:29N 53°33' E 008°10'0 0.0
2017-Feb-11 02:17N 53°33' E 008°10'0 0.0
2017-Feb-11 01:17N 53°33' E 008°10'0 0.0
2017-Feb-10 22:32N 53°33' E 008°10'0 0.0
2017-Feb-10 21:32N 53°33' E 008°10'0 0.0
2017-Feb-10 20:32N 53°33' E 008°10'0 0.0
2017-Feb-10 19:28N 53°33' E 008°10'0 0.0
2017-Feb-10 18:31N 53°33' E 008°10'0 0.0
2017-Feb-10 17:31N 53°33' E 008°10'0 0.0
2017-Feb-10 16:25N 53°33' E 008°10'0 0.0
2017-Feb-10 14:13N 53°33' E 008°10'0 0.0
2017-Feb-10 13:28N 53°33' E 008°10'0 0.0
2017-Feb-10 11:25N 53°33' E 008°10'0 0.0
2017-Feb-10 07:31N 53°33' E 008°10'0 0.0
2017-Feb-10 06:16N 53°33' E 008°10'0 0.0
2017-Feb-10 05:19N 53°33' E 008°10'0 0.0
2017-Feb-10 04:31N 53°33' E 008°10'0 0.0
2017-Feb-10 02:31N 53°33' E 008°10'  
Track history (hours):
 
Tides and Currents Weather Stations Pressure Air Temp Water Temp Dewpoint Dewpoint Depression Visibility Wind Speed Wind Dir Waves Ship Positions

British Robin

Last reported at 2017-Feb-20 01:33 UTC. Time now 2017-Feb-20 01:46 UTC.
Position N 54°58' E 010°57'.

Length 251.5 m; beam 43.9 m; draft 15 m.

Type: Tanker. MMSI: 232156000.

Date/timePositionNaut miles runAvg speedWind from/ knotsBaromVisibWave heightAir tempDewpointWater temp
2017-Feb-20 01:33N 54°58' E 010°57'1111.1
2017-Feb-20 00:34N 54°47' E 010°50'10 9.8
2017-Feb-19 23:33N 54°38' E 010°55'1212.1
2017-Feb-19 22:33N 54°34' E 011°15'1312.9
2017-Feb-19 21:33N 54°29' E 011°35'1612.5
2017-Feb-19 20:16N 54°26' E 012°02'7 9.6
2017-Feb-19 19:33N 54°30' E 012°13'1010.1
2017-Feb-19 18:33N 54°38' E 012°22'6211.8
2017-Feb-19 13:19N 55°04' E 013°60'1013.1
2017-Feb-19 12:33N 55°08' E 014°16'1312.9
2017-Feb-19 11:33N 55°15' E 014°35'1110.7
2017-Feb-19 10:34N 55°19' E 014°52'9 8.9
2017-Feb-19 09:34N 55°22' E 015°07'1413.6
2017-Feb-19 08:33N 55°28' E 015°29'1313.2
2017-Feb-19 07:33N 55°32' E 015°51'1313.2
2017-Feb-19 06:33N 55°37' E 016°12'1312.9
2017-Feb-19 05:34N 55°41' E 016°34'1312.7
2017-Feb-19 04:33N 55°47' E 016°54'17812.2
2017-Feb-18 14:00N 58°06' E 020°18'5112.7 250 / 221016.3 1.1 1.0-0.4 1.0
2017-Feb-18 10:00N 58°48' E 021°12'6212.5 210 / 241014.610.8 3.0 0.3
2017-Feb-18 05:00N 59°30' E 022°42'2013.6 290 / 241011.9 5.4 2.0-0.8
2017-Feb-18 03:30N 59°38' E 023°19'1212.8
2017-Feb-18 02:33N 59°41' E 023°42'915.9
2017-Feb-18 02:00N 59°42' E 024°00'7012.7 260 / 181012.1 5.4 -0.0-0.0-0.0
2017-Feb-17 20:27N 59°60' E 026°16'1213.0
2017-Feb-17 19:33N 60°01' E 026°39'1312.7
2017-Feb-17 18:33N 59°60' E 027°04'1313.0
2017-Feb-17 17:31N 60°07' E 027°27'1212.5
2017-Feb-17 16:33N 60°12' E 027°49'1111.0
2017-Feb-17 15:33N 60°09' E 028°10'9 8.7
2017-Feb-17 14:33N 60°06' E 028°27'6 6.3
2017-Feb-17 13:33N 60°09' E 028°38'4 4.1
2017-Feb-17 12:33N 60°12' E 028°45'5 4.6
2017-Feb-17 11:33N 60°16' E 028°47'4 0.1
2017-Feb-16 06:33N 60°20' E 028°43'0 0.0
2017-Feb-16 05:33N 60°20' E 028°43'1 0.5
2017-Feb-16 04:33N 60°19' E 028°42'6 5.3
2017-Feb-16 03:31N 60°15' E 028°48'3 3.1
2017-Feb-16 02:27N 60°12' E 028°44'3 3.0
2017-Feb-16 01:33N 60°10' E 028°41'9 9.1
2017-Feb-16 00:33N 60°06' E 028°24'10 9.9
2017-Feb-15 23:33N 60°09' E 028°05'1211.5
2017-Feb-15 22:33N 60°10' E 027°42'1313.0
2017-Feb-15 21:34N 60°03' E 027°19'7 3.0
2017-Feb-15 19:11N 60°02' E 027°05'0 0.0
2017-Feb-15 17:29N 60°02' E 027°05'0 0.0
2017-Feb-15 16:29N 60°02' E 027°05'0 0.0
2017-Feb-15 15:29N 60°02' E 027°05'0 0.0
2017-Feb-15 14:14N 60°02' E 027°05'0 0.1
2017-Feb-15 13:32N 60°02' E 027°05'0 0.0
2017-Feb-15 12:32N 60°02' E 027°05'0 0.1
2017-Feb-15 11:32N 60°02' E 027°05'0 0.0
2017-Feb-15 10:32N 60°02' E 027°05'0 0.1
2017-Feb-15 09:27N 60°02' E 027°05'4 4.7
2017-Feb-15 08:33N 59°58' E 027°02'1212.2
2017-Feb-15 07:33N 59°59' E 026°38'1312.6
2017-Feb-15 06:33N 59°56' E 026°14'2812.5
2017-Feb-15 04:19N 59°49' E 025°20'412.5
2017-Feb-15 04:00N 59°48' E 025°12'3112.5 070 / 81033.3 5.4 1.0-1.9
2017-Feb-15 01:33N 59°42' E 024°13'1312.5
2017-Feb-15 00:33N 59°37' E 023°50'1412.6
2017-Feb-14 23:29N 59°32' E 023°25'16912.5
2017-Feb-14 10:00N 57°24' E 019°54'9411.1 350 / 181031.210.8 4.0 1.4
2017-Feb-14 01:31N 56°07' E 018°15'1612.9
2017-Feb-14 00:16N 55°59' E 017°50'912.8
2017-Feb-13 23:34N 55°55' E 017°36'1312.9
2017-Feb-13 22:33N 55°51' E 017°13'6712.7
2017-Feb-13 17:19N 55°35' E 015°19'912.2
2017-Feb-13 16:33N 55°29' E 015°06'1212.4
2017-Feb-13 15:33N 55°22' E 014°49'1110.6
2017-Feb-13 14:33N 55°15' E 014°34'1414.3
2017-Feb-13 13:33N 55°05' E 014°15'1413.9
2017-Feb-13 12:33N 54°59' E 013°54'1414.1
2017-Feb-13 11:34N 54°54' E 013°31'1414.4
2017-Feb-13 10:34N 54°49' E 013°08'1414.3
2017-Feb-13 09:34N 54°44' E 012°44'1414.1
2017-Feb-13 08:34N 54°37' E 012°23'1513.5
2017-Feb-13 07:28N 54°25' E 012°09'1313.7
2017-Feb-13 06:30N 54°25' E 011°46'1313.8
2017-Feb-13 05:34N 54°31' E 011°26'1313.2
2017-Feb-13 04:34N 54°36' E 011°05'1212.5
2017-Feb-13 03:34N 54°46' E 010°52'1312.9
2017-Feb-13 02:33N 54°58' E 010°59'1313.1
2017-Feb-13 01:34N 55°11' E 011°04'1312.5
2017-Feb-13 00:32N 55°24' E 011°00'2712.6
2017-Feb-12 22:23N 55°50' E 010°49'1213.6
2017-Feb-12 21:32N 55°59' E 011°02'1513.4
2017-Feb-12 20:27N 56°11' E 011°17'4213.5
2017-Feb-12 17:18N 56°50' E 011°48'2514.3
2017-Feb-12 15:34N 57°13' E 011°33'1313.4
2017-Feb-12 14:33N 57°26' E 011°25'1313.3
2017-Feb-12 13:34N 57°36' E 011°08'1413.6
2017-Feb-12 12:33N 57°44' E 010°48'9 9.3
2017-Feb-12 11:34N 57°47' E 010°32'1211.9
2017-Feb-12 10:33N 57°47' E 010°09'1211.8
2017-Feb-12 09:30N 57°45' E 009°47'1312.3
2017-Feb-12 08:26N 57°39' E 009°24'1112.8
2017-Feb-12 07:34N 57°35' E 009°05'1212.5
2017-Feb-12 06:33N 57°29' E 008°44'916.5
2017-Feb-12 06:00N 57°24' E 008°30'3 7.4 100 / 301038.7 5.4 0.5-0.9
2017-Feb-12 05:33N 57°23' E 008°24'1211.5
2017-Feb-12 04:30N 57°20' E 008°03'2812.1
2017-Feb-12 02:12N 56°59' E 007°29'11612.0
2017-Feb-11 16:33N 55°07' E 006°36'1212.2
2017-Feb-11 15:34N 54°55' E 006°42'1424.4
2017-Feb-11 15:00N 54°42' E 006°48'4 8.6 100 / 261029.2 5.4 2.0-4.1
2017-Feb-11 14:33N 54°44' E 006°53'5513.1
2017-Feb-11 10:24N 53°57' E 007°42'1112.5
2017-Feb-11 09:33N 53°50' E 007°54'1010.2
2017-Feb-11 08:33N 53°42' E 008°05'9 8.9
2017-Feb-11 07:34N 53°33' E 008°10'0 0.0
2017-Feb-11 06:32N 53°33' E 008°10'0 0.0
2017-Feb-11 05:29N 53°33' E 008°10'0 0.0
2017-Feb-11 02:17N 53°33' E 008°10'0 0.0
2017-Feb-11 01:17N 53°33' E 008°10'0 0.0
2017-Feb-10 22:32N 53°33' E 008°10'0 0.0
2017-Feb-10 21:32N 53°33' E 008°10'0 0.0
2017-Feb-10 20:32N 53°33' E 008°10'0 0.0
2017-Feb-10 19:28N 53°33' E 008°10'0 0.0
2017-Feb-10 18:31N 53°33' E 008°10'0 0.0
2017-Feb-10 17:31N 53°33' E 008°10'0 0.0
2017-Feb-10 16:25N 53°33' E 008°10'0 0.0
2017-Feb-10 14:13N 53°33' E 008°10'0 0.0
2017-Feb-10 13:28N 53°33' E 008°10'0 0.0
2017-Feb-10 11:25N 53°33' E 008°10'0 0.0
2017-Feb-10 07:31N 53°33' E 008°10'0 0.0
2017-Feb-10 06:16N 53°33' E 008°10'0 0.0
2017-Feb-10 05:19N 53°33' E 008°10'0 0.0
2017-Feb-10 04:31N 53°33' E 008°10'0 0.0
2017-Feb-10 02:31N 53°33' E 008°10'  

Dump ship's entire track history